sensor_id;sensor_type;location;lat;lon;timestamp;temperature;humidity
20432;DHT22;10375;49.136;10.366;2022-10-16T00:01:20;14.30;99.90
20432;DHT22;10375;49.136;10.366;2022-10-16T00:03:47;14.30;99.90
20432;DHT22;10375;49.136;10.366;2022-10-16T00:06:16;14.40;99.90
20432;DHT22;10375;49.136;10.366;2022-10-16T00:08:43;14.40;99.90
20432;DHT22;10375;49.136;10.366;2022-10-16T00:11:14;14.40;99.90
20432;DHT22;10375;49.136;10.366;2022-10-16T00:13:44;14.30;99.90
20432;DHT22;10375;49.136;10.366;2022-10-16T00:16:16;14.30;99.90
20432;DHT22;10375;49.136;10.366;2022-10-16T00:18:43;14.30;99.90
20432;DHT22;10375;49.136;10.366;2022-10-16T00:21:15;14.30;99.90
20432;DHT22;10375;49.136;10.366;2022-10-16T00:23:43;14.30;99.90
20432;DHT22;10375;49.136;10.366;2022-10-16T00:26:14;14.20;99.90
20432;DHT22;10375;49.136;10.366;2022-10-16T00:28:42;14.20;99.90
20432;DHT22;10375;49.136;10.366;2022-10-16T00:31:10;14.20;99.90
20432;DHT22;10375;49.136;10.366;2022-10-16T00:33:39;14.20;99.90
20432;DHT22;10375;49.136;10.366;2022-10-16T00:36:08;14.20;99.90
20432;DHT22;10375;49.136;10.366;2022-10-16T00:38:36;14.20;99.90
20432;DHT22;10375;49.136;10.366;2022-10-16T00:41:10;14.20;99.90
20432;DHT22;10375;49.136;10.366;2022-10-16T00:43:50;14.20;99.90
20432;DHT22;10375;49.136;10.366;2022-10-16T00:46:21;14.20;99.90
20432;DHT22;10375;49.136;10.366;2022-10-16T00:49:02;14.20;99.90
20432;DHT22;10375;49.136;10.366;2022-10-16T00:51:38;14.20;99.90
20432;DHT22;10375;49.136;10.366;2022-10-16T00:54:18;14.20;99.90
20432;DHT22;10375;49.136;10.366;2022-10-16T00:56:47;14.20;99.90
20432;DHT22;10375;49.136;10.366;2022-10-16T00:59:36;14.20;99.90
20432;DHT22;10375;49.136;10.366;2022-10-16T01:02:04;14.20;99.90
20432;DHT22;10375;49.136;10.366;2022-10-16T01:04:36;14.20;99.90
20432;DHT22;10375;49.136;10.366;2022-10-16T01:07:12;14.20;99.90
20432;DHT22;10375;49.136;10.366;2022-10-16T01:10:02;14.20;99.90
20432;DHT22;10375;49.136;10.366;2022-10-16T01:13:09;14.20;99.90
20432;DHT22;10375;49.136;10.366;2022-10-16T01:21:04;14.30;99.90
20432;DHT22;10375;49.136;10.366;2022-10-16T01:29:03;14.40;99.90
20432;DHT22;10375;49.136;10.366;2022-10-16T01:31:36;14.40;99.90
20432;DHT22;10375;49.136;10.366;2022-10-16T01:37:05;14.40;99.90
20432;DHT22;10375;49.136;10.366;2022-10-16T01:39:35;14.40;99.90
20432;DHT22;10375;49.136;10.366;2022-10-16T01:42:14;14.40;99.90
20432;DHT22;10375;49.136;10.366;2022-10-16T01:44:43;14.40;99.90
20432;DHT22;10375;49.136;10.366;2022-10-16T01:47:13;14.40;99.90
20432;DHT22;10375;49.136;10.366;2022-10-16T01:49:41;14.40;99.90
20432;DHT22;10375;49.136;10.366;2022-10-16T01:52:16;14.40;99.90
20432;DHT22;10375;49.136;10.366;2022-10-16T01:54:46;14.40;99.90
20432;DHT22;10375;49.136;10.366;2022-10-16T01:57:15;14.40;99.90
20432;DHT22;10375;49.136;10.366;2022-10-16T01:59:47;14.40;99.90
20432;DHT22;10375;49.136;10.366;2022-10-16T02:02:15;14.40;99.90
20432;DHT22;10375;49.136;10.366;2022-10-16T02:04:46;14.30;99.90
20432;DHT22;10375;49.136;10.366;2022-10-16T02:07:14;14.20;99.90
20432;DHT22;10375;49.136;10.366;2022-10-16T02:09:41;14.20;99.90
20432;DHT22;10375;49.136;10.366;2022-10-16T02:12:13;14.20;99.90
20432;DHT22;10375;49.136;10.366;2022-10-16T02:14:42;14.10;99.90
20432;DHT22;10375;49.136;10.366;2022-10-16T02:17:15;14.10;99.90
20432;DHT22;10375;49.136;10.366;2022-10-16T02:19:44;14.10;99.90
20432;DHT22;10375;49.136;10.366;2022-10-16T02:22:22;14.00;99.90
20432;DHT22;10375;49.136;10.366;2022-10-16T02:24:56;14.00;99.90
20432;DHT22;10375;49.136;10.366;2022-10-16T02:27:41;14.00;99.90
20432;DHT22;10375;49.136;10.366;2022-10-16T02:30:34;14.00;99.90
20432;DHT22;10375;49.136;10.366;2022-10-16T02:33:06;14.00;99.90
20432;DHT22;10375;49.136;10.366;2022-10-16T02:35:34;13.90;99.90
20432;DHT22;10375;49.136;10.366;2022-10-16T02:38:02;13.90;99.90
20432;DHT22;10375;49.136;10.366;2022-10-16T02:40:30;14.00;99.90
20432;DHT22;10375;49.136;10.366;2022-10-16T02:42:57;13.90;99.90
20432;DHT22;10375;49.136;10.366;2022-10-16T02:45:24;13.90;99.90
20432;DHT22;10375;49.136;10.366;2022-10-16T02:47:51;13.90;99.90
20432;DHT22;10375;49.136;10.366;2022-10-16T02:50:18;14.00;99.90
20432;DHT22;10375;49.136;10.366;2022-10-16T02:52:45;13.90;99.90
20432;DHT22;10375;49.136;10.366;2022-10-16T02:55:12;13.90;99.90
20432;DHT22;10375;49.136;10.366;2022-10-16T02:57:39;13.90;99.90
20432;DHT22;10375;49.136;10.366;2022-10-16T03:00:12;13.90;99.90
20432;DHT22;10375;49.136;10.366;2022-10-16T03:02:40;13.90;99.90
20432;DHT22;10375;49.136;10.366;2022-10-16T03:05:07;13.90;99.90
20432;DHT22;10375;49.136;10.366;2022-10-16T03:07:35;13.90;99.90
20432;DHT22;10375;49.136;10.366;2022-10-16T03:10:02;13.90;99.90
20432;DHT22;10375;49.136;10.366;2022-10-16T03:12:29;13.80;99.90
20432;DHT22;10375;49.136;10.366;2022-10-16T03:14:57;13.80;99.90
20432;DHT22;10375;49.136;10.366;2022-10-16T03:17:24;13.80;99.90
20432;DHT22;10375;49.136;10.366;2022-10-16T03:19:52;13.80;99.90
20432;DHT22;10375;49.136;10.366;2022-10-16T03:22:19;13.80;99.90
20432;DHT22;10375;49.136;10.366;2022-10-16T03:24:46;13.80;99.90
20432;DHT22;10375;49.136;10.366;2022-10-16T03:27:13;13.80;99.90
20432;DHT22;10375;49.136;10.366;2022-10-16T03:29:40;13.80;99.90
20432;DHT22;10375;49.136;10.366;2022-10-16T03:32:07;13.90;99.90
20432;DHT22;10375;49.136;10.366;2022-10-16T03:34:34;13.90;99.90
20432;DHT22;10375;49.136;10.366;2022-10-16T03:37:01;13.90;99.90
20432;DHT22;10375;49.136;10.366;2022-10-16T03:39:29;13.90;99.90
20432;DHT22;10375;49.136;10.366;2022-10-16T03:41:55;13.90;99.90
20432;DHT22;10375;49.136;10.366;2022-10-16T03:44:22;13.90;99.90
20432;DHT22;10375;49.136;10.366;2022-10-16T03:46:49;14.00;99.90
20432;DHT22;10375;49.136;10.366;2022-10-16T03:49:16;14.00;99.90
20432;DHT22;10375;49.136;10.366;2022-10-16T03:51:43;14.00;99.90
20432;DHT22;10375;49.136;10.366;2022-10-16T03:54:10;14.00;99.90
20432;DHT22;10375;49.136;10.366;2022-10-16T03:56:38;14.00;99.90
20432;DHT22;10375;49.136;10.366;2022-10-16T03:59:05;14.00;99.90
20432;DHT22;10375;49.136;10.366;2022-10-16T04:01:32;14.00;99.90
20432;DHT22;10375;49.136;10.366;2022-10-16T04:03:59;14.00;99.90
20432;DHT22;10375;49.136;10.366;2022-10-16T04:06:26;13.90;99.90
20432;DHT22;10375;49.136;10.366;2022-10-16T04:08:53;13.90;99.90
20432;DHT22;10375;49.136;10.366;2022-10-16T04:11:20;13.90;99.90
20432;DHT22;10375;49.136;10.366;2022-10-16T04:13:47;13.90;99.90
20432;DHT22;10375;49.136;10.366;2022-10-16T04:16:14;13.90;99.90
20432;DHT22;10375;49.136;10.366;2022-10-16T04:18:41;13.90;99.90
20432;DHT22;10375;49.136;10.366;2022-10-16T04:21:08;13.90;99.90
20432;DHT22;10375;49.136;10.366;2022-10-16T04:23:35;13.90;99.90
20432;DHT22;10375;49.136;10.366;2022-10-16T04:26:02;13.80;99.90
20432;DHT22;10375;49.136;10.366;2022-10-16T04:28:29;13.80;99.90
20432;DHT22;10375;49.136;10.366;2022-10-16T04:30:57;13.80;99.90
20432;DHT22;10375;49.136;10.366;2022-10-16T04:33:24;13.80;99.90
20432;DHT22;10375;49.136;10.366;2022-10-16T04:36:00;13.80;99.90
20432;DHT22;10375;49.136;10.366;2022-10-16T04:38:28;13.70;99.90
20432;DHT22;10375;49.136;10.366;2022-10-16T04:40:55;13.60;99.90
20432;DHT22;10375;49.136;10.366;2022-10-16T04:43:23;13.60;99.90
20432;DHT22;10375;49.136;10.366;2022-10-16T04:45:50;13.50;99.90
20432;DHT22;10375;49.136;10.366;2022-10-16T04:48:18;13.50;99.90
20432;DHT22;10375;49.136;10.366;2022-10-16T04:50:45;13.50;99.90
20432;DHT22;10375;49.136;10.366;2022-10-16T04:53:20;13.40;99.90
20432;DHT22;10375;49.136;10.366;2022-10-16T04:55:47;13.40;99.90
20432;DHT22;10375;49.136;10.366;2022-10-16T04:58:14;13.40;99.90
20432;DHT22;10375;49.136;10.366;2022-10-16T05:00:42;13.40;99.90
20432;DHT22;10375;49.136;10.366;2022-10-16T05:03:09;13.30;99.90
20432;DHT22;10375;49.136;10.366;2022-10-16T05:05:36;13.30;99.90
20432;DHT22;10375;49.136;10.366;2022-10-16T05:08:03;13.30;99.90
20432;DHT22;10375;49.136;10.366;2022-10-16T05:10:30;13.20;99.90
20432;DHT22;10375;49.136;10.366;2022-10-16T05:12:58;13.30;99.90
20432;DHT22;10375;49.136;10.366;2022-10-16T05:15:25;13.30;99.90
20432;DHT22;10375;49.136;10.366;2022-10-16T05:17:53;13.20;99.90
20432;DHT22;10375;49.136;10.366;2022-10-16T05:20:21;13.30;99.90
20432;DHT22;10375;49.136;10.366;2022-10-16T05:22:48;13.20;99.90
20432;DHT22;10375;49.136;10.366;2022-10-16T05:25:15;13.30;99.90
20432;DHT22;10375;49.136;10.366;2022-10-16T05:27:43;13.30;99.90
20432;DHT22;10375;49.136;10.366;2022-10-16T05:30:10;13.20;99.90
20432;DHT22;10375;49.136;10.366;2022-10-16T05:32:38;13.30;99.90
20432;DHT22;10375;49.136;10.366;2022-10-16T05:35:05;13.30;99.90
20432;DHT22;10375;49.136;10.366;2022-10-16T05:37:38;13.30;99.90
20432;DHT22;10375;49.136;10.366;2022-10-16T05:40:05;13.30;99.90
20432;DHT22;10375;49.136;10.366;2022-10-16T05:42:32;13.30;99.90
20432;DHT22;10375;49.136;10.366;2022-10-16T05:44:59;13.20;99.90
20432;DHT22;10375;49.136;10.366;2022-10-16T05:47:27;13.30;99.90
20432;DHT22;10375;49.136;10.366;2022-10-16T05:49:54;13.30;99.90
20432;DHT22;10375;49.136;10.366;2022-10-16T05:52:22;13.20;99.90
20432;DHT22;10375;49.136;10.366;2022-10-16T05:54:49;13.30;99.90
20432;DHT22;10375;49.136;10.366;2022-10-16T05:57:16;13.40;99.90
20432;DHT22;10375;49.136;10.366;2022-10-16T05:59:43;13.30;99.90
20432;DHT22;10375;49.136;10.366;2022-10-16T06:02:13;13.40;99.90
20432;DHT22;10375;49.136;10.366;2022-10-16T06:04:40;13.40;99.90
20432;DHT22;10375;49.136;10.366;2022-10-16T06:07:07;13.40;99.90
20432;DHT22;10375;49.136;10.366;2022-10-16T06:09:34;13.50;99.90
20432;DHT22;10375;49.136;10.366;2022-10-16T06:12:02;13.50;99.90
20432;DHT22;10375;49.136;10.366;2022-10-16T06:14:29;13.50;99.90
20432;DHT22;10375;49.136;10.366;2022-10-16T06:16:56;13.60;99.90
20432;DHT22;10375;49.136;10.366;2022-10-16T06:19:23;13.60;99.90
20432;DHT22;10375;49.136;10.366;2022-10-16T06:21:50;13.60;99.90
20432;DHT22;10375;49.136;10.366;2022-10-16T06:24:17;13.70;99.90
20432;DHT22;10375;49.136;10.366;2022-10-16T06:26:44;13.80;99.90
20432;DHT22;10375;49.136;10.366;2022-10-16T06:29:11;13.90;99.90
20432;DHT22;10375;49.136;10.366;2022-10-16T06:31:38;13.90;99.90
20432;DHT22;10375;49.136;10.366;2022-10-16T06:34:05;14.00;99.90
20432;DHT22;10375;49.136;10.366;2022-10-16T06:36:36;14.10;99.90
20432;DHT22;10375;49.136;10.366;2022-10-16T06:39:04;14.20;99.90
20432;DHT22;10375;49.136;10.366;2022-10-16T06:41:32;14.30;99.90
20432;DHT22;10375;49.136;10.366;2022-10-16T06:43:59;14.40;99.90
20432;DHT22;10375;49.136;10.366;2022-10-16T06:46:26;14.50;99.90
20432;DHT22;10375;49.136;10.366;2022-10-16T06:48:53;14.60;99.90
20432;DHT22;10375;49.136;10.366;2022-10-16T06:51:22;14.80;99.90
20432;DHT22;10375;49.136;10.366;2022-10-16T06:53:54;14.80;99.90
20432;DHT22;10375;49.136;10.366;2022-10-16T06:56:31;14.90;99.90
20432;DHT22;10375;49.136;10.366;2022-10-16T06:59:00;14.90;99.90
20432;DHT22;10375;49.136;10.366;2022-10-16T07:01:27;14.90;99.90
20432;DHT22;10375;49.136;10.366;2022-10-16T07:03:55;14.90;99.90
20432;DHT22;10375;49.136;10.366;2022-10-16T07:06:24;14.90;99.90
20432;DHT22;10375;49.136;10.366;2022-10-16T07:08:51;14.90;99.90
20432;DHT22;10375;49.136;10.366;2022-10-16T07:11:21;14.90;99.90
20432;DHT22;10375;49.136;10.366;2022-10-16T07:13:49;14.90;99.90
20432;DHT22;10375;49.136;10.366;2022-10-16T07:16:25;14.90;99.90
20432;DHT22;10375;49.136;10.366;2022-10-16T07:18:54;15.00;99.90
20432;DHT22;10375;49.136;10.366;2022-10-16T07:21:28;15.10;99.90
20432;DHT22;10375;49.136;10.366;2022-10-16T07:23:59;15.20;99.90
20432;DHT22;10375;49.136;10.366;2022-10-16T07:26:29;15.40;99.90
20432;DHT22;10375;49.136;10.366;2022-10-16T07:28:57;15.70;99.90
20432;DHT22;10375;49.136;10.366;2022-10-16T07:31:26;15.90;99.90
20432;DHT22;10375;49.136;10.366;2022-10-16T07:33:54;16.30;99.90
20432;DHT22;10375;49.136;10.366;2022-10-16T07:36:21;16.40;99.90
20432;DHT22;10375;49.136;10.366;2022-10-16T07:38:48;16.40;99.90
20432;DHT22;10375;49.136;10.366;2022-10-16T07:41:19;16.40;99.90
20432;DHT22;10375;49.136;10.366;2022-10-16T07:43:50;16.30;99.90
20432;DHT22;10375;49.136;10.366;2022-10-16T07:46:19;16.30;99.90
20432;DHT22;10375;49.136;10.366;2022-10-16T07:48:46;16.50;99.90
20432;DHT22;10375;49.136;10.366;2022-10-16T07:51:17;17.00;99.90
20432;DHT22;10375;49.136;10.366;2022-10-16T07:53:44;17.80;99.90
20432;DHT22;10375;49.136;10.366;2022-10-16T07:56:12;18.20;99.90
20432;DHT22;10375;49.136;10.366;2022-10-16T07:58:39;18.10;99.90
20432;DHT22;10375;49.136;10.366;2022-10-16T08:01:08;17.70;99.90
20432;DHT22;10375;49.136;10.366;2022-10-16T08:03:36;17.30;99.90
20432;DHT22;10375;49.136;10.366;2022-10-16T08:06:04;17.00;99.90
20432;DHT22;10375;49.136;10.366;2022-10-16T08:08:31;16.90;99.90
20432;DHT22;10375;49.136;10.366;2022-10-16T08:10:59;16.90;99.90
20432;DHT22;10375;49.136;10.366;2022-10-16T08:13:26;17.00;99.90
20432;DHT22;10375;49.136;10.366;2022-10-16T08:15:54;17.20;99.90
20432;DHT22;10375;49.136;10.366;2022-10-16T08:18:21;17.60;99.90
20432;DHT22;10375;49.136;10.366;2022-10-16T08:20:56;17.80;99.90
20432;DHT22;10375;49.136;10.366;2022-10-16T08:23:24;18.00;99.90
20432;DHT22;10375;49.136;10.366;2022-10-16T08:26:01;18.20;99.90
20432;DHT22;10375;49.136;10.366;2022-10-16T08:28:28;18.10;99.90
20432;DHT22;10375;49.136;10.366;2022-10-16T08:30:55;18.20;99.90
20432;DHT22;10375;49.136;10.366;2022-10-16T08:33:23;18.30;99.90
20432;DHT22;10375;49.136;10.366;2022-10-16T08:35:53;18.40;99.90
20432;DHT22;10375;49.136;10.366;2022-10-16T08:38:21;18.40;99.90
20432;DHT22;10375;49.136;10.366;2022-10-16T08:40:48;18.30;99.90
20432;DHT22;10375;49.136;10.366;2022-10-16T08:48:57;18.20;99.90
20432;DHT22;10375;49.136;10.366;2022-10-16T08:51:32;18.00;99.90
20432;DHT22;10375;49.136;10.366;2022-10-16T08:54:05;17.70;99.90
20432;DHT22;10375;49.136;10.366;2022-10-16T08:56:32;17.60;99.90
20432;DHT22;10375;49.136;10.366;2022-10-16T08:59:00;17.40;99.90
20432;DHT22;10375;49.136;10.366;2022-10-16T09:01:41;17.20;99.90
20432;DHT22;10375;49.136;10.366;2022-10-16T09:10:14;17.10;99.90
20432;DHT22;10375;49.136;10.366;2022-10-16T09:12:56;17.20;99.90
20432;DHT22;10375;49.136;10.366;2022-10-16T09:15:37;17.40;99.90
20432;DHT22;10375;49.136;10.366;2022-10-16T09:18:34;17.50;99.90
20432;DHT22;10375;49.136;10.366;2022-10-16T09:21:10;17.50;99.90
20432;DHT22;10375;49.136;10.366;2022-10-16T09:23:40;17.70;99.90
20432;DHT22;10375;49.136;10.366;2022-10-16T09:26:14;17.90;99.90
20432;DHT22;10375;49.136;10.366;2022-10-16T09:28:42;18.20;99.90
20432;DHT22;10375;49.136;10.366;2022-10-16T09:31:20;18.40;99.90
20432;DHT22;10375;49.136;10.366;2022-10-16T09:34:00;18.70;99.90
20432;DHT22;10375;49.136;10.366;2022-10-16T09:36:40;18.90;99.90
20432;DHT22;10375;49.136;10.366;2022-10-16T09:39:10;19.20;99.90
20432;DHT22;10375;49.136;10.366;2022-10-16T09:41:43;19.40;99.90
20432;DHT22;10375;49.136;10.366;2022-10-16T09:44:19;19.50;99.90
20432;DHT22;10375;49.136;10.366;2022-10-16T09:46:48;19.70;99.90
20432;DHT22;10375;49.136;10.366;2022-10-16T09:49:22;19.80;99.90
20432;DHT22;10375;49.136;10.366;2022-10-16T09:51:51;20.00;99.90
20432;DHT22;10375;49.136;10.366;2022-10-16T09:54:20;20.00;99.90
20432;DHT22;10375;49.136;10.366;2022-10-16T09:56:48;19.90;99.90
20432;DHT22;10375;49.136;10.366;2022-10-16T09:59:21;19.90;99.90
20432;DHT22;10375;49.136;10.366;2022-10-16T10:01:52;19.80;99.90
20432;DHT22;10375;49.136;10.366;2022-10-16T10:04:21;19.90;99.90
20432;DHT22;10375;49.136;10.366;2022-10-16T10:06:54;19.90;99.90
20432;DHT22;10375;49.136;10.366;2022-10-16T10:09:32;19.90;99.90
20432;DHT22;10375;49.136;10.366;2022-10-16T10:12:01;20.00;99.90
20432;DHT22;10375;49.136;10.366;2022-10-16T10:19:48;20.30;99.90
20432;DHT22;10375;49.136;10.366;2022-10-16T10:30:47;20.40;99.90
20432;DHT22;10375;49.136;10.366;2022-10-16T10:36:16;21.40;99.90
20432;DHT22;10375;49.136;10.366;2022-10-16T10:55:45;22.20;99.90
20432;DHT22;10375;49.136;10.366;2022-10-16T11:00:48;22.10;99.90
20432;DHT22;10375;49.136;10.366;2022-10-16T11:03:42;22.60;99.90
20432;DHT22;10375;49.136;10.366;2022-10-16T11:06:19;22.50;99.90
20432;DHT22;10375;49.136;10.366;2022-10-16T11:08:55;22.10;99.90
20432;DHT22;10375;49.136;10.366;2022-10-16T11:11:38;22.00;99.90
20432;DHT22;10375;49.136;10.366;2022-10-16T11:14:30;22.10;99.90
20432;DHT22;10375;49.136;10.366;2022-10-16T11:17:27;22.70;99.90
20432;DHT22;10375;49.136;10.366;2022-10-16T11:20:22;23.20;99.90
20432;DHT22;10375;49.136;10.366;2022-10-16T11:22:52;23.20;99.90
20432;DHT22;10375;49.136;10.366;2022-10-16T11:25:28;23.40;99.90
20432;DHT22;10375;49.136;10.366;2022-10-16T11:28:15;23.50;99.90
20432;DHT22;10375;49.136;10.366;2022-10-16T11:31:08;23.30;99.90
20432;DHT22;10375;49.136;10.366;2022-10-16T11:33:41;23.30;99.90
20432;DHT22;10375;49.136;10.366;2022-10-16T11:36:20;23.30;99.90
20432;DHT22;10375;49.136;10.366;2022-10-16T11:41:49;23.10;99.90
20432;DHT22;10375;49.136;10.366;2022-10-16T11:50:27;23.60;99.90
20432;DHT22;10375;49.136;10.366;2022-10-16T11:53:01;23.60;99.90
20432;DHT22;10375;49.136;10.366;2022-10-16T11:55:37;23.40;99.90
20432;DHT22;10375;49.136;10.366;2022-10-16T11:59:11;23.20;99.90
20432;DHT22;10375;49.136;10.366;2022-10-16T12:01:44;22.80;99.90
20432;DHT22;10375;49.136;10.366;2022-10-16T12:06:49;22.70;99.90
20432;DHT22;10375;49.136;10.366;2022-10-16T12:09:30;22.70;99.90
20432;DHT22;10375;49.136;10.366;2022-10-16T12:11:58;22.70;99.90
20432;DHT22;10375;49.136;10.366;2022-10-16T12:14:37;22.70;99.90
20432;DHT22;10375;49.136;10.366;2022-10-16T12:17:36;22.70;99.90
20432;DHT22;10375;49.136;10.366;2022-10-16T12:20:30;22.80;99.90
20432;DHT22;10375;49.136;10.366;2022-10-16T12:23:06;23.10;99.90
20432;DHT22;10375;49.136;10.366;2022-10-16T12:25:38;23.60;99.90
20432;DHT22;10375;49.136;10.366;2022-10-16T12:28:18;24.10;99.90
20432;DHT22;10375;49.136;10.366;2022-10-16T12:31:02;24.40;99.90
20432;DHT22;10375;49.136;10.366;2022-10-16T12:33:33;24.50;99.90
20432;DHT22;10375;49.136;10.366;2022-10-16T12:36:16;24.50;99.90
20432;DHT22;10375;49.136;10.366;2022-10-16T12:38:53;24.60;99.90
20432;DHT22;10375;49.136;10.366;2022-10-16T12:43:58;24.80;99.90
20432;DHT22;10375;49.136;10.366;2022-10-16T12:51:41;24.80;99.90
20432;DHT22;10375;49.136;10.366;2022-10-16T12:54:39;24.80;99.90
20432;DHT22;10375;49.136;10.366;2022-10-16T13:09:18;25.10;99.90
20432;DHT22;10375;49.136;10.366;2022-10-16T13:28:29;25.00;99.90
20432;DHT22;10375;49.136;10.366;2022-10-16T13:30:58;25.10;99.90
20432;DHT22;10375;49.136;10.366;2022-10-16T13:33:37;25.20;99.90
20432;DHT22;10375;49.136;10.366;2022-10-16T13:36:05;25.40;99.90
20432;DHT22;10375;49.136;10.366;2022-10-16T13:38:34;25.50;99.90
20432;DHT22;10375;49.136;10.366;2022-10-16T13:41:16;25.50;99.90
20432;DHT22;10375;49.136;10.366;2022-10-16T13:43:46;25.40;99.90
20432;DHT22;10375;49.136;10.366;2022-10-16T13:46:19;25.40;99.90
20432;DHT22;10375;49.136;10.366;2022-10-16T13:49:00;25.40;99.90
20432;DHT22;10375;49.136;10.366;2022-10-16T13:51:30;25.60;99.90
20432;DHT22;10375;49.136;10.366;2022-10-16T13:53:58;25.60;99.90
20432;DHT22;10375;49.136;10.366;2022-10-16T13:56:28;25.60;99.90
20432;DHT22;10375;49.136;10.366;2022-10-16T13:59:06;25.80;99.90
20432;DHT22;10375;49.136;10.366;2022-10-16T14:01:41;25.80;99.90
20432;DHT22;10375;49.136;10.366;2022-10-16T14:04:11;25.50;99.90
20432;DHT22;10375;49.136;10.366;2022-10-16T14:06:44;24.90;99.90
20432;DHT22;10375;49.136;10.366;2022-10-16T14:09:22;24.40;99.90
20432;DHT22;10375;49.136;10.366;2022-10-16T14:11:52;23.70;99.90
20432;DHT22;10375;49.136;10.366;2022-10-16T14:14:20;23.20;99.90
20432;DHT22;10375;49.136;10.366;2022-10-16T14:16:48;22.90;99.90
20432;DHT22;10375;49.136;10.366;2022-10-16T14:19:22;22.60;99.90
20432;DHT22;10375;49.136;10.366;2022-10-16T14:21:51;22.40;99.90
20432;DHT22;10375;49.136;10.366;2022-10-16T14:24:33;22.10;99.90
20432;DHT22;10375;49.136;10.366;2022-10-16T14:27:02;21.90;99.90
20432;DHT22;10375;49.136;10.366;2022-10-16T14:29:29;21.80;99.90
20432;DHT22;10375;49.136;10.366;2022-10-16T14:32:03;21.80;99.90
20432;DHT22;10375;49.136;10.366;2022-10-16T14:37:25;21.60;99.90
20432;DHT22;10375;49.136;10.366;2022-10-16T14:39:54;21.50;99.90
20432;DHT22;10375;49.136;10.366;2022-10-16T14:42:24;21.50;99.90
20432;DHT22;10375;49.136;10.366;2022-10-16T14:44:53;21.50;99.90
20432;DHT22;10375;49.136;10.366;2022-10-16T14:47:22;21.40;99.90
20432;DHT22;10375;49.136;10.366;2022-10-16T14:49:54;21.40;99.90
20432;DHT22;10375;49.136;10.366;2022-10-16T14:52:22;21.30;99.90
20432;DHT22;10375;49.136;10.366;2022-10-16T14:54:50;21.10;99.90
20432;DHT22;10375;49.136;10.366;2022-10-16T14:57:24;21.00;99.90
20432;DHT22;10375;49.136;10.366;2022-10-16T14:59:54;20.90;99.90
20432;DHT22;10375;49.136;10.366;2022-10-16T15:02:34;20.80;99.90
20432;DHT22;10375;49.136;10.366;2022-10-16T15:05:16;20.70;99.90
20432;DHT22;10375;49.136;10.366;2022-10-16T15:07:44;20.60;99.90
20432;DHT22;10375;49.136;10.366;2022-10-16T15:10:13;20.50;99.90
20432;DHT22;10375;49.136;10.366;2022-10-16T15:12:40;20.40;99.90
20432;DHT22;10375;49.136;10.366;2022-10-16T15:17:50;20.20;99.90
20432;DHT22;10375;49.136;10.366;2022-10-16T15:20:24;20.10;99.90
20432;DHT22;10375;49.136;10.366;2022-10-16T15:22:51;20.10;99.90
20432;DHT22;10375;49.136;10.366;2022-10-16T15:27:54;20.00;99.90
20432;DHT22;10375;49.136;10.366;2022-10-16T15:30:21;20.00;99.90
20432;DHT22;10375;49.136;10.366;2022-10-16T15:32:48;20.00;99.90
20432;DHT22;10375;49.136;10.366;2022-10-16T15:35:15;20.00;99.90
20432;DHT22;10375;49.136;10.366;2022-10-16T15:37:42;19.90;99.90
20432;DHT22;10375;49.136;10.366;2022-10-16T15:40:10;19.90;99.90
20432;DHT22;10375;49.136;10.366;2022-10-16T15:42:37;19.90;99.90
20432;DHT22;10375;49.136;10.366;2022-10-16T15:45:05;19.80;99.90
20432;DHT22;10375;49.136;10.366;2022-10-16T15:47:33;19.70;99.90
20432;DHT22;10375;49.136;10.366;2022-10-16T15:50:00;19.60;99.90
20432;DHT22;10375;49.136;10.366;2022-10-16T15:52:26;19.60;99.90
20432;DHT22;10375;49.136;10.366;2022-10-16T15:54:55;19.50;99.90
20432;DHT22;10375;49.136;10.366;2022-10-16T15:57:22;19.40;99.90
20432;DHT22;10375;49.136;10.366;2022-10-16T15:59:50;19.40;99.90
20432;DHT22;10375;49.136;10.366;2022-10-16T16:02:17;19.30;99.90
20432;DHT22;10375;49.136;10.366;2022-10-16T16:04:44;19.20;99.90
20432;DHT22;10375;49.136;10.366;2022-10-16T16:07:12;19.20;99.90
20432;DHT22;10375;49.136;10.366;2022-10-16T16:09:39;19.10;99.90
20432;DHT22;10375;49.136;10.366;2022-10-16T16:12:06;19.10;99.90
20432;DHT22;10375;49.136;10.366;2022-10-16T16:14:33;19.00;99.90
20432;DHT22;10375;49.136;10.366;2022-10-16T16:17:00;18.90;99.90
20432;DHT22;10375;49.136;10.366;2022-10-16T16:19:27;18.90;99.90
20432;DHT22;10375;49.136;10.366;2022-10-16T16:21:54;18.80;99.90
20432;DHT22;10375;49.136;10.366;2022-10-16T16:24:21;18.80;99.90
20432;DHT22;10375;49.136;10.366;2022-10-16T16:26:48;18.80;99.90
20432;DHT22;10375;49.136;10.366;2022-10-16T16:29:15;18.70;99.90
20432;DHT22;10375;49.136;10.366;2022-10-16T16:31:43;18.60;99.90
20432;DHT22;10375;49.136;10.366;2022-10-16T16:34:10;18.50;99.90
20432;DHT22;10375;49.136;10.366;2022-10-16T16:36:37;18.50;99.90
20432;DHT22;10375;49.136;10.366;2022-10-16T16:39:06;18.40;99.90
20432;DHT22;10375;49.136;10.366;2022-10-16T16:41:34;18.40;99.90
20432;DHT22;10375;49.136;10.366;2022-10-16T16:44:03;18.30;99.90
20432;DHT22;10375;49.136;10.366;2022-10-16T16:46:32;18.30;99.90
20432;DHT22;10375;49.136;10.366;2022-10-16T16:48:59;18.20;99.90
20432;DHT22;10375;49.136;10.366;2022-10-16T16:51:27;18.20;99.90
20432;DHT22;10375;49.136;10.366;2022-10-16T16:53:54;18.10;99.90
20432;DHT22;10375;49.136;10.366;2022-10-16T16:56:23;18.10;99.90
20432;DHT22;10375;49.136;10.366;2022-10-16T16:58:53;18.10;99.90
20432;DHT22;10375;49.136;10.366;2022-10-16T17:01:21;18.10;99.90
20432;DHT22;10375;49.136;10.366;2022-10-16T17:03:51;18.00;99.90
20432;DHT22;10375;49.136;10.366;2022-10-16T17:06:20;18.10;99.90
20432;DHT22;10375;49.136;10.366;2022-10-16T17:08:49;18.00;99.90
20432;DHT22;10375;49.136;10.366;2022-10-16T17:11:18;18.00;99.90
20432;DHT22;10375;49.136;10.366;2022-10-16T17:13:47;18.00;99.90
20432;DHT22;10375;49.136;10.366;2022-10-16T17:16:22;17.90;99.90
20432;DHT22;10375;49.136;10.366;2022-10-16T17:18:49;17.90;99.90
20432;DHT22;10375;49.136;10.366;2022-10-16T17:21:16;17.90;99.90
20432;DHT22;10375;49.136;10.366;2022-10-16T17:23:43;17.90;99.90
20432;DHT22;10375;49.136;10.366;2022-10-16T17:26:15;17.80;99.90
20432;DHT22;10375;49.136;10.366;2022-10-16T17:28:43;17.80;99.90
20432;DHT22;10375;49.136;10.366;2022-10-16T17:31:18;17.70;99.90
20432;DHT22;10375;49.136;10.366;2022-10-16T17:33:46;17.70;99.90
20432;DHT22;10375;49.136;10.366;2022-10-16T17:36:13;17.60;99.90